EBOS/OST METAR and TAF weather

Enter ICAO airport designator
Station Type Date Time Source
EBOS METAR 2021/09/20 05:50 UTC NOAA

EBOS 200550Z 06004KT 2500 BR NSC 14/13 Q1018 NOSIG


Station Type Date Time Source
EBOS Decoded METAR 2021/09/20 05:50 UTC NOAA

Oostende Airport , Belgium (EBOS) 51-12N 002-52E 5M
Sep 20, 2021 - 01:50 AM EDT / 2021.09.20 0550 UTC
Wind: from the ENE (060 degrees) at 5 MPH (4 KT):0
Visibility: 1 mile(s):0
Weather: mist
Temperature: 57 F (14 C)
Dew Point: 55 F (13 C)
Relative Humidity: 93%
Pressure (altimeter): 30.06 in. Hg (1018 hPa)
ob: EBOS 200550Z 06004KT 2500 BR NSC 14/13 Q1018 NOSIG
cycle: 6

Station Type Date Time Source
EBOS TAF 2021/09/20 06:30 UTC NOAA

TAF EBOS 200510Z 2006/2112 07009KT 4000 BR FEW045
BECMG 2006/2008 9999 NSW

Example: see airport list